Time;durP1;ratioP1;P1;durP2;ratioP2;P2;SDS_P1;SDS_P2;PMS_P1;PMS_P2;Temp;Humidity;BMP_temperature;BMP_pressure;BME280_temperature;BME280_humidity;BME280_pressure;Samples;Min_cycle;Max_cycle;Signal;HPM_P1;HPM_P2
2021/01/25 06:20:49;;;;;;;11.25;8.95;;;;;;;5.71;99.81;99057.80;1728880;79;21512;-45
2021/01/25 06:23:19;;;;;;;13.72;9.23;;;;;;;5.73;99.92;99053.89;1737342;79;21212;-47
2021/01/25 06:29:11;;;;;;;13.08;9.08;;;;;;;5.72;99.92;99051.73;1761655;80;21148;-48
2021/01/25 06:40:15;;;;;;;13.65;8.70;;;;;;;5.73;99.94;99056.48;1746758;78;21123;-46
2021/01/25 06:42:49;;;;;;;13.38;8.65;;;;;;;5.71;99.91;99078.55;1730858;80;21545;-45
2021/01/25 06:49:12;;;;;;;12.53;8.30;;;;;;;5.68;99.92;99074.64;1755652;80;21273;-46
2021/01/25 06:51:58;;;;;;;10.93;8.30;;;;;;;5.66;100.00;99058.66;1756267;78;21135;-40
2021/01/25 06:54:28;;;;;;;8.88;7.03;;;;;;;5.65;100.00;99060.39;1759543;79;21668;-45
2021/01/25 06:57:04;;;;;;;8.90;7.15;;;;;;;5.66;100.00;99064.70;1740743;78;21194;-45
2021/01/25 06:59:42;;;;;;;10.13;8.20;;;;;;;5.68;100.00;99065.56;1679887;81;21552;-41
2021/01/25 07:02:20;;;;;;;9.28;6.67;;;;;;;5.71;100.00;99069.91;1760220;79;22056;-47
2021/01/25 07:04:59;;;;;;;11.73;7.05;;;;;;;5.73;99.85;99063.84;1785032;78;22535;-45
2021/01/25 07:07:30;;;;;;;10.75;7.40;;;;;;;5.65;99.81;99062.98;1722604;81;21171;-46
2021/01/25 07:09:59;;;;;;;13.05;7.85;;;;;;;5.61;99.80;99053.46;1717303;81;21812;-47
2021/01/25 07:12:28;;;;;;;9.80;6.60;;;;;;;5.59;99.98;99060.39;1703446;82;21568;-47
2021/01/25 07:14:56;;;;;;;8.80;6.00;;;;;;;5.57;100.00;99051.31;1702338;82;21452;-42
2021/01/25 07:17:31;;;;;;;8.28;5.97;;;;;;;5.59;100.00;99049.58;1655607;82;21221;-41
2021/01/25 07:25:43;;;;;;;7.10;5.30;;;;;;;5.66;100.00;99039.20;1707179;83;21179;-42
2021/01/25 07:29:30;;;;;;;6.37;4.55;;;;;;;5.71;100.00;99038.33;1707219;81;21454;-40
2021/01/25 07:40:08;;;;;;;9.55;5.60;;;;;;;5.83;100.00;99039.61;1711847;82;21321;-41
2021/01/25 07:43:19;;;;;;;10.95;6.15;;;;;;;5.91;100.00;99032.25;1711232;82;21543;-41
2021/01/25 07:45:51;;;;;;;6.65;5.00;;;;;;;5.98;100.00;99032.29;1710037;81;21162;-47
2021/01/25 07:48:17;;;;;;;5.12;4.53;;;;;;;6.03;100.00;99037.05;1708162;83;21692;-42
2021/01/25 07:51:00;;;;;;;6.90;4.72;;;;;;;6.07;100.00;99037.45;1706680;82;21669;-47
2021/01/25 07:53:29;;;;;;;8.88;5.72;;;;;;;6.10;100.00;99041.35;1692247;83;21134;-46
2021/01/25 07:55:58;;;;;;;11.65;6.50;;;;;;;6.13;100.00;99032.67;1678487;83;21217;-42
2021/01/25 07:59:17;;;;;;;7.00;4.65;;;;;;;6.21;100.00;99024.45;1795182;77;22992;-47
2021/01/25 08:02:10;;;;;;;7.60;5.00;;;;;;;6.21;99.84;99016.66;1786090;78;21211;-46
2021/01/25 08:04:40;;;;;;;9.55;6.45;;;;;;;6.24;99.68;99016.64;1804874;76;21411;-41
2021/01/25 08:07:08;;;;;;;8.28;5.75;;;;;;;6.30;99.65;99011.42;1785911;77;21311;-47
2021/01/25 08:09:38;;;;;;;8.33;6.12;;;;;;;6.34;99.27;99001.89;1787632;78;21665;-46
2021/01/25 08:12:08;;;;;;;11.28;5.40;;;;;;;6.34;98.99;99009.25;1777880;78;21780;-46
2021/01/25 08:14:48;;;;;;;7.95;5.42;;;;;;;6.36;98.82;99012.70;1775394;78;21139;-42
2021/01/25 08:17:41;;;;;;;8.03;5.33;;;;;;;6.38;98.71;99012.72;1735018;78;21134;-49
2021/01/25 08:20:19;;;;;;;8.80;4.95;;;;;;;6.39;98.52;99020.49;1798179;78;21708;-46
2021/01/25 08:22:54;;;;;;;8.63;5.35;;;;;;;6.42;98.53;99013.55;1706052;78;21691;-42
2021/01/25 08:25:27;;;;;;;10.68;5.67;;;;;;;6.45;98.39;99010.52;1678230;80;22015;-41
2021/01/25 08:28:14;;;;;;;7.27;5.10;;;;;;;6.47;98.00;99020.89;1677418;84;22151;-43
2021/01/25 08:30:50;;;;;;;7.67;5.33;;;;;;;6.45;97.98;99010.95;1649297;85;21826;-47
2021/01/25 08:33:31;;;;;;;11.40;6.25;;;;;;;6.48;98.08;99015.69;1599943;87;21658;-41
2021/01/25 08:36:04;;;;;;;7.37;4.85;;;;;;;6.52;98.02;99016.55;1627616;85;21145;-45
2021/01/25 08:38:56;;;;;;;10.53;5.42;;;;;;;6.52;97.76;99017.41;1632421;85;21211;-46
2021/01/25 08:41:32;;;;;;;10.23;5.62;;;;;;;6.51;97.70;99016.13;1611916;85;21191;-41
2021/01/25 08:44:15;;;;;;;8.43;5.67;;;;;;;6.53;97.78;99007.88;1611476;87;21203;-41
2021/01/25 08:46:44;;;;;;;7.75;5.50;;;;;;;6.54;97.79;99002.66;1603119;87;22007;-40
2021/01/25 08:49:20;;;;;;;9.18;6.10;;;;;;;6.54;97.74;98987.07;1656061;84;21568;-41
2021/01/25 08:52:05;;;;;;;15.55;7.33;;;;;;;6.56;97.84;98994.45;1653322;85;21159;-42
2021/01/25 08:54:36;;;;;;;10.82;6.75;;;;;;;6.58;97.81;98993.99;1646469;85;21526;-40
2021/01/25 08:57:18;;;;;;;12.20;7.65;;;;;;;6.59;97.81;98978.83;1633259;85;21226;-41
2021/01/25 08:59:46;;;;;;;9.70;6.28;;;;;;;6.61;97.91;98979.70;1636789;85;21176;-46
2021/01/25 09:02:24;;;;;;;13.83;7.45;;;;;;;6.66;98.05;98978.35;1633921;85;21251;-45
2021/01/25 09:04:53;;;;;;;14.70;7.90;;;;;;;6.71;98.03;98966.64;1638556;85;21637;-45
2021/01/25 09:07:27;;;;;;;13.22;8.10;;;;;;;6.74;98.03;98962.30;1659560;85;21179;-46
2021/01/25 09:10:37;;;;;;;14.73;7.50;;;;;;;6.81;98.07;98958.78;1590088;87;21182;-46
2021/01/25 09:13:14;;;;;;;16.73;9.48;;;;;;;6.85;97.95;98963.54;1608884;85;21231;-40
2021/01/25 09:16:04;;;;;;;17.25;8.45;;;;;;;6.87;98.02;98945.74;1636485;85;21187;-40
2021/01/25 09:18:32;;;;;;;16.15;9.18;;;;;;;6.92;98.07;98949.63;1641683;84;21613;-41
2021/01/25 09:21:24;;;;;;;17.48;9.08;;;;;;;6.96;98.06;98937.03;1631552;85;21559;-47
2021/01/25 09:23:52;;;;;;;17.17;9.25;;;;;;;7.02;98.06;98945.23;1640361;87;21131;-46
2021/01/25 09:26:21;;;;;;;17.32;9.43;;;;;;;7.05;98.03;98951.25;1627217;85;21232;-42
2021/01/25 09:28:51;;;;;;;17.48;10.78;;;;;;;7.08;98.07;98949.09;1631891;85;21350;-41
2021/01/25 09:31:22;;;;;;;16.10;11.25;;;;;;;7.11;98.09;98938.64;1624657;85;21156;-41
2021/01/25 09:33:50;;;;;;;25.17;11.65;;;;;;;7.14;98.04;98947.73;1608896;87;21762;-45
2021/01/25 09:36:22;;;;;;;23.47;12.05;;;;;;;7.17;97.96;98929.48;1627914;86;21850;-46
2021/01/25 09:38:54;;;;;;;16.05;10.30;;;;;;;7.20;98.01;98906.07;1626092;86;21169;-45
2021/01/25 09:41:24;;;;;;;21.93;12.20;;;;;;;7.32;98.06;98898.16;1608765;87;21728;-41
2021/01/25 09:43:52;;;;;;;22.80;11.30;;;;;;;7.44;98.16;98899.34;1656277;84;21993;-46
2021/01/25 09:46:21;;;;;;;15.65;10.72;;;;;;;7.57;97.95;98899.22;1641013;84;21363;-46
2021/01/25 09:48:51;;;;;;;17.15;10.43;;;;;;;7.67;97.56;98893.05;1626999;85;21193;-47
2021/01/25 09:51:20;;;;;;;19.42;10.95;;;;;;;7.74;97.40;98887.75;1623508;85;21722;-47
2021/01/25 09:53:48;;;;;;;21.02;10.40;;;;;;;7.84;97.09;98882.01;1624343;86;22055;-41
2021/01/25 09:56:16;;;;;;;18.15;11.15;;;;;;;7.94;96.93;98886.23;1655581;84;21286;-47
2021/01/25 09:58:44;;;;;;;17.27;10.08;;;;;;;8.05;96.82;98863.94;1630052;87;21219;-45
2021/01/25 10:01:12;;;;;;;16.67;10.50;;;;;;;8.15;96.24;98859.48;1623328;86;21689;-46
2021/01/25 10:03:40;;;;;;;17.27;9.65;;;;;;;8.19;95.53;98863.34;1632609;85;21357;-41
2021/01/25 10:06:12;;;;;;;19.70;10.93;;;;;;;8.22;95.08;98864.59;1610618;85;21179;-39
2021/01/25 10:08:50;;;;;;;18.98;9.80;;;;;;;8.24;94.65;98864.15;1634113;85;22047;-40
2021/01/25 10:11:26;;;;;;;25.27;9.50;;;;;;;8.24;94.34;98853.73;1633058;85;21871;-40
2021/01/25 10:14:37;;;;;;;20.68;10.58;;;;;;;8.28;94.37;98853.22;1634908;84;21197;-46
2021/01/25 10:18:02;;;;;;;16.55;9.13;;;;;;;8.31;93.91;98845.38;1627724;84;21234;-41
2021/01/25 10:21:23;;;;;;;;;;;;;;;8.37;93.86;98823.62;1640486;84;21629;-39
2021/01/25 10:28:27;;;;;;;16.10;8.63;;;;;;;8.49;92.95;98836.02;1634249;85;21290;-40
2021/01/25 10:31:14;;;;;;;17.55;8.68;;;;;;;8.54;92.64;98829.45;1650535;85;21210;-47
2021/01/25 10:34:29;;;;;;;18.90;8.53;;;;;;;8.57;92.56;98825.47;1648744;85;21745;-47
2021/01/25 10:37:04;;;;;;;19.67;8.85;;;;;;;8.59;92.65;98813.30;1650117;85;21554;-48
2021/01/25 10:39:32;;;;;;;20.82;8.53;;;;;;;8.62;92.86;98800.64;1657044;84;21194;-42
2021/01/25 10:42:00;;;;;;;20.80;8.78;;;;;;;8.67;92.96;98794.47;1619991;86;21254;-41
2021/01/25 10:44:29;;;;;;;18.00;7.83;;;;;;;8.73;92.82;98792.20;1606194;86;21182;-44
2021/01/25 10:46:57;;;;;;;18.55;7.28;;;;;;;8.79;92.78;98789.05;1615074;85;21574;-46
2021/01/25 10:49:26;;;;;;;19.57;7.55;;;;;;;8.82;92.49;98797.28;1608075;85;21377;-41
2021/01/25 10:51:56;;;;;;;22.37;8.73;;;;;;;8.83;92.21;98782.49;1655654;85;22057;-42
2021/01/25 10:54:28;;;;;;;18.52;7.40;;;;;;;8.83;92.17;98784.66;1630319;85;21365;-42
2021/01/25 10:57:00;;;;;;;21.97;6.72;;;;;;;8.84;91.95;98790.28;1616200;87;21218;-42
2021/01/25 10:59:30;;;;;;;15.78;6.67;;;;;;;8.81;91.61;98787.71;1638890;85;21224;-43
2021/01/25 11:01:58;;;;;;;18.40;7.87;;;;;;;8.78;91.52;98782.56;1646027;85;21475;-47
2021/01/25 11:04:26;;;;;;;22.67;7.00;;;;;;;8.75;91.41;98771.72;1649847;85;21182;-47
2021/01/25 11:07:03;;;;;;;22.22;7.30;;;;;;;8.76;91.45;98776.08;1634216;85;21740;-48
2021/01/25 11:30:28;;;;;;;17.15;6.12;;;;;;;8.78;91.51;98744.75;1639123;85;21572;-44
2021/01/25 11:33:54;;;;;;;12.78;6.62;;;;;;;8.79;91.27;98743.86;1610594;87;21254;-45
2021/01/25 11:36:42;;;;;;;19.60;7.80;;;;;;;8.82;91.21;98741.22;1629199;86;21669;-41
2021/01/25 11:39:31;;;;;;;20.80;8.13;;;;;;;8.87;90.94;98738.50;1628405;87;21440;-42
2021/01/25 11:42:10;;;;;;;26.35;9.80;;;;;;;8.88;91.01;98717.63;1601164;85;22007;-41
2021/01/25 11:44:50;;;;;;;17.90;7.00;;;;;;;8.90;90.89;98716.29;1615288;86;21360;-41
2021/01/25 11:47:19;;;;;;;21.93;7.55;;;;;;;8.90;90.87;98724.97;1628869;85;21215;-47
2021/01/25 11:49:51;;;;;;;22.25;6.72;;;;;;;8.89;90.93;98705.00;1633764;85;21147;-47
2021/01/25 11:52:39;;;;;;;20.75;7.67;;;;;;;8.89;91.02;98714.58;1608300;86;21685;-47
2021/01/25 11:55:18;;;;;;;21.40;7.87;;;;;;;8.86;91.24;98708.95;1637640;86;21332;-47
2021/01/25 11:57:50;;;;;;;16.60;6.80;;;;;;;8.85;91.57;98719.42;1636473;87;21100;-42
2021/01/25 12:00:23;;;;;;;18.12;7.17;;;;;;;8.84;91.72;98708.13;1620354;86;21343;-43
2021/01/25 12:03:01;;;;;;;17.77;7.92;;;;;;;8.86;91.79;98707.65;1598787;87;21488;-44
2021/01/25 12:10:06;;;;;;;16.40;6.40;;;;;;;8.88;91.75;98693.30;1628333;86;21195;-48
2021/01/25 12:12:55;;;;;;;17.07;6.40;;;;;;;8.88;91.64;98695.46;1619554;85;21182;-48
2021/01/25 12:15:48;;;;;;;20.80;7.17;;;;;;;8.89;91.61;98696.32;1630586;85;21575;-43
2021/01/25 12:18:53;;;;;;;13.53;6.78;;;;;;;8.89;91.46;98697.17;1625506;85;21355;-41
2021/01/25 12:21:35;;;;;;;20.10;7.28;;;;;;;8.89;91.16;98685.44;1651863;85;21194;-48
2021/01/25 12:24:06;;;;;;;11.88;7.03;;;;;;;8.91;90.98;98691.48;1631859;85;21160;-42
2021/01/25 12:26:41;;;;;;;17.87;8.10;;;;;;;8.92;90.90;98690.58;1637390;84;21703;-42
2021/01/25 12:29:18;;;;;;;20.45;8.18;;;;;;;8.95;90.85;98681.41;1627216;85;21204;-52
2021/01/25 12:31:48;;;;;;;13.93;5.90;;;;;;;8.98;90.72;98678.73;1630494;85;21180;-41
2021/01/25 12:34:18;;;;;;;14.65;6.67;;;;;;;9.04;90.53;98681.25;1629006;87;21202;-46
2021/01/25 12:36:47;;;;;;;12.43;5.87;;;;;;;9.12;90.26;98678.48;1639768;85;21590;-43
2021/01/25 12:39:16;;;;;;;14.58;6.22;;;;;;;9.17;90.08;98675.34;1635264;85;21227;-42
2021/01/25 12:41:45;;;;;;;17.52;6.53;;;;;;;9.20;89.92;98671.34;1657564;85;21172;-46
2021/01/25 12:44:14;;;;;;;13.68;5.85;;;;;;;9.23;89.73;98675.21;1611959;87;21190;-42
2021/01/25 12:46:44;;;;;;;17.23;7.00;;;;;;;9.25;89.42;98672.12;1612610;87;21826;-43
2021/01/25 12:49:16;;;;;;;18.37;6.20;;;;;;;9.28;89.47;98665.99;1631999;85;21844;-42
2021/01/25 12:51:54;;;;;;;15.13;5.87;;;;;;;9.29;89.25;98657.27;1630885;86;22156;-40
2021/01/25 12:54:24;;;;;;;16.40;6.15;;;;;;;9.31;88.87;98654.17;1615120;86;21201;-43
2021/01/25 12:56:54;;;;;;;11.73;5.90;;;;;;;9.32;88.65;98665.02;1614511;86;21210;-41
2021/01/25 12:59:22;;;;;;;11.55;7.30;;;;;;;9.33;88.36;98660.20;1616835;85;21192;-48
2021/01/25 13:01:50;;;;;;;16.73;8.00;;;;;;;9.31;88.07;98652.41;1630286;87;22161;-42
2021/01/25 13:04:18;;;;;;;23.70;10.95;;;;;;;9.31;88.06;98657.63;1633831;85;21766;-41
2021/01/25 13:06:46;;;;;;;17.87;8.13;;;;;;;9.29;87.83;98656.81;1633063;85;21216;-47
2021/01/25 13:09:15;;;;;;;15.15;6.72;;;;;;;9.28;87.56;98648.58;1610999;87;21413;-47
2021/01/25 13:11:43;;;;;;;20.88;7.83;;;;;;;9.28;87.57;98659.47;1641619;87;21220;-47
2021/01/25 13:14:11;;;;;;;17.48;6.00;;;;;;;9.25;87.56;98662.13;1636999;87;21630;-41
2021/01/25 13:16:39;;;;;;;14.78;6.33;;;;;;;9.23;87.58;98649.12;1639985;85;21549;-48
2021/01/25 13:19:07;;;;;;;14.40;6.22;;;;;;;9.23;87.65;98646.95;1630189;86;21294;-46
2021/01/25 13:21:35;;;;;;;8.93;5.70;;;;;;;9.20;87.56;98656.99;1635023;86;21252;-41
2021/01/25 13:24:03;;;;;;;17.50;6.95;;;;;;;9.20;87.63;98664.83;1632230;87;21593;-46
2021/01/25 13:26:31;;;;;;;12.20;5.72;;;;;;;9.18;87.86;98657.93;1642116;85;21746;-47
2021/01/25 13:28:58;;;;;;;13.90;5.33;;;;;;;9.17;87.82;98648.39;1637706;84;21251;-41
2021/01/25 13:31:27;;;;;;;16.85;4.90;;;;;;;9.15;87.70;98641.88;1640821;85;21270;-46
2021/01/25 13:33:55;;;;;;;12.65;5.15;;;;;;;9.15;87.74;98637.10;1640544;85;21204;-41
2021/01/25 13:36:23;;;;;;;8.28;4.65;;;;;;;9.15;87.71;98651.00;1642462;84;21183;-46
2021/01/25 13:38:51;;;;;;;15.50;5.33;;;;;;;9.15;87.65;98636.66;1645747;85;21279;-46
2021/01/25 13:41:20;;;;;;;11.00;5.72;;;;;;;9.15;87.73;98640.56;1638562;85;21274;-46
2021/01/25 13:43:47;;;;;;;10.53;5.10;;;;;;;9.15;87.94;98643.17;1597391;88;21195;-47
2021/01/25 13:46:15;;;;;;;11.88;5.55;;;;;;;9.12;88.09;98625.00;1615627;87;21220;-41
2021/01/25 13:48:42;;;;;;;12.85;5.47;;;;;;;9.10;88.44;98623.29;1631598;87;21602;-39
2021/01/25 13:51:11;;;;;;;11.83;5.08;;;;;;;9.07;88.84;98629.44;1644349;86;21704;-44
2021/01/25 13:53:41;;;;;;;9.93;4.45;;;;;;;9.02;89.42;98611.27;1641652;85;21370;-40
2021/01/25 13:56:08;;;;;;;10.78;4.97;;;;;;;8.98;89.86;98619.18;1632982;85;21193;-41
2021/01/25 13:58:36;;;;;;;14.73;5.15;;;;;;;8.92;90.33;98618.86;1640444;85;21282;-46
2021/01/25 14:01:06;;;;;;;11.55;4.80;;;;;;;8.88;90.63;98617.67;1617287;87;21255;-47
2021/01/25 14:03:34;;;;;;;10.95;4.62;;;;;;;8.84;91.02;98604.27;1633950;87;21214;-47
2021/01/25 14:06:04;;;;;;;8.98;4.90;;;;;;;8.80;91.26;98621.70;1641982;85;21212;-42
2021/01/25 14:08:33;;;;;;;14.65;5.17;;;;;;;8.77;91.45;98620.48;1651859;85;21228;-46
2021/01/25 14:11:02;;;;;;;16.35;5.33;;;;;;;8.75;91.80;98610.50;1647391;85;21229;-46
2021/01/25 14:13:30;;;;;;;14.18;5.67;;;;;;;8.73;92.19;98617.06;1639367;85;21209;-46
2021/01/25 14:15:58;;;;;;;9.53;4.85;;;;;;;8.69;92.50;98618.44;1641177;84;21219;-41
2021/01/25 14:18:26;;;;;;;10.08;4.55;;;;;;;8.64;92.91;98616.36;1642007;85;21251;-42
2021/01/25 14:20:54;;;;;;;11.83;5.28;;;;;;;8.59;93.29;98617.78;1644837;85;21203;-46
2021/01/25 14:23:22;;;;;;;9.30;5.15;;;;;;;8.55;93.63;98620.46;1628617;85;21232;-42
